Time;durP1;ratioP1;P1;durP2;ratioP2;P2;SDS_P1;SDS_P2;PMS_P1;PMS_P2;Temp;Humidity;BMP_temperature;BMP_pressure;BME280_temperature;BME280_humidity;BME280_pressure;Samples;Min_cycle;Max_cycle;Signal;HPM_P1;HPM_P2
2022/05/28 00:01:48;;;;;;;4.13;3.03;;;21.90;78.20;;;22.34;53.70;94760.50;5042017;28;20543;-55
2022/05/28 00:04:15;;;;;;;5.43;4.50;;;21.90;78.40;;;22.31;53.80;94760.94;5044060;28;20483;-54
2022/05/28 00:06:45;;;;;;;4.00;3.60;;;21.80;78.60;;;22.29;53.94;94757.59;5044620;28;20459;-54
2022/05/28 00:09:12;;;;;;;6.93;4.10;;;21.80;79.00;;;22.27;53.97;94749.75;5042970;28;20460;-54
2022/05/28 00:11:42;;;;;;;8.30;3.40;;;21.70;78.90;;;22.24;53.98;94736.78;5043831;28;20451;-56
2022/05/28 00:14:10;;;;;;;5.60;3.63;;;21.80;79.00;;;22.24;53.80;94741.34;5043632;28;20914;-56
2022/05/28 00:16:37;;;;;;;6.60;3.43;;;21.70;79.00;;;22.22;53.90;94740.75;5043115;28;20529;-56
2022/05/28 00:19:05;;;;;;;8.97;4.30;;;21.70;79.00;;;22.17;54.19;94739.53;5043210;28;20472;-56
2022/05/28 00:21:33;;;;;;;6.93;3.90;;;21.70;79.40;;;22.15;54.17;94738.09;5043276;28;20463;-54
2022/05/28 00:24:01;;;;;;;6.00;2.77;;;21.60;79.50;;;22.12;54.56;94746.56;5040767;28;20495;-55
2022/05/28 00:26:29;;;;;;;5.90;4.30;;;21.60;79.90;;;22.08;54.83;94735.47;5040563;28;20457;-55
2022/05/28 00:28:56;;;;;;;6.07;3.30;;;21.60;80.50;;;22.03;54.64;94730.75;5041018;28;20558;-55
2022/05/28 00:31:23;;;;;;;5.93;4.00;;;21.50;80.40;;;21.99;54.57;94709.97;5042309;28;20459;-54
2022/05/28 00:33:51;;;;;;;3.97;3.17;;;21.50;80.20;;;21.96;54.83;94710.38;5042145;28;21047;-55
2022/05/28 00:36:18;;;;;;;4.70;3.60;;;21.50;80.60;;;21.93;54.74;94705.47;5040852;28;21011;-56
2022/05/28 00:38:46;;;;;;;11.13;3.97;;;21.40;80.60;;;21.90;54.90;94709.38;5043101;28;20460;-55
2022/05/28 00:41:15;;;;;;;12.13;4.37;;;21.40;81.00;;;21.89;54.97;94710.44;5039381;28;20828;-55
2022/05/28 00:43:44;;;;;;;13.23;4.27;;;21.40;81.30;;;21.87;55.00;94709.00;5042923;28;20487;-53
2022/05/28 00:46:13;;;;;;;11.17;4.13;;;21.40;81.30;;;21.81;55.21;94703.47;5043135;28;21085;-56
2022/05/28 00:48:44;;;;;;;11.53;3.43;;;21.40;81.80;;;21.79;55.09;94705.53;5037914;28;20463;-54
2022/05/28 00:51:14;;;;;;;6.60;4.00;;;21.30;81.60;;;21.77;55.40;94701.44;5042432;28;20566;-55
2022/05/28 00:53:41;;;;;;;9.07;4.40;;;21.30;82.00;;;21.75;55.31;94692.78;5043001;28;20849;-56
2022/05/28 00:56:09;;;;;;;5.33;3.87;;;21.30;82.20;;;21.72;55.61;94694.03;5044147;28;20529;-55
2022/05/28 00:58:37;;;;;;;7.03;3.97;;;21.20;82.60;;;21.70;55.52;94706.81;5042884;28;20451;-52
2022/05/28 01:01:05;;;;;;;5.80;3.77;;;21.20;82.50;;;21.67;55.51;94718.78;5047332;28;20479;-54
2022/05/28 01:03:37;;;;;;;4.90;4.00;;;21.20;82.70;;;21.65;55.93;94730.72;5045844;28;20487;-54
2022/05/28 01:06:07;;;;;;;3.77;3.47;;;21.10;83.10;;;21.61;55.89;94740.19;5043772;28;20541;-55
2022/05/28 01:08:38;;;;;;;18.20;3.43;;;21.10;83.20;;;21.57;55.49;94733.63;5045621;28;20460;-52
2022/05/28 01:11:10;;;;;;;8.33;4.23;;;21.10;83.10;;;21.53;55.88;94735.91;5046699;28;20482;-53
2022/05/28 01:13:45;;;;;;;5.67;3.70;;;21.00;83.20;;;21.48;56.16;94755.22;5044468;28;20525;-55
2022/05/28 01:16:16;;;;;;;5.13;3.87;;;21.00;83.60;;;21.44;56.35;94793.31;5044896;28;20482;-55
2022/05/28 01:18:48;;;;;;;24.50;5.50;;;21.00;84.10;;;21.37;56.04;94793.34;5046407;28;20448;-55
2022/05/28 01:21:28;;;;;;;11.33;4.07;;;20.90;83.60;;;21.28;55.39;94775.88;5043426;28;20533;-55
2022/05/28 01:24:00;;;;;;;8.50;4.40;;;20.80;82.90;;;21.19;55.82;94790.50;5045286;28;20589;-55
2022/05/28 01:26:32;;;;;;;6.47;4.20;;;20.70;83.00;;;21.12;56.09;94787.84;5043462;28;20462;-55
2022/05/28 01:29:04;;;;;;;8.00;4.40;;;20.70;83.60;;;21.09;56.01;94773.00;5043852;28;20520;-55
2022/05/28 01:31:32;;;;;;;9.67;4.63;;;20.60;83.60;;;21.05;56.29;94771.81;5046593;28;20547;-55
2022/05/28 01:33:59;;;;;;;15.87;4.90;;;20.60;84.90;;;21.03;56.55;94787.22;5046144;28;20455;-54
2022/05/28 01:36:27;;;;;;;22.93;5.57;;;20.60;84.40;;;21.04;56.70;94777.38;5045702;28;20460;-56
2022/05/28 01:38:55;;;;;;;14.03;5.40;;;20.60;85.00;;;21.05;56.60;94763.78;5046705;28;20455;-55
2022/05/28 01:41:22;;;;;;;13.70;5.73;;;20.60;85.00;;;21.08;56.59;94775.91;5044545;28;20573;-54
2022/05/28 01:43:50;;;;;;;22.40;6.30;;;20.60;85.10;;;21.11;56.54;94773.63;5046295;28;20498;-53
2022/05/28 01:46:21;;;;;;;23.37;7.00;;;20.60;85.00;;;21.12;56.69;94774.47;5046374;28;20557;-56
2022/05/28 01:48:51;;;;;;;16.63;5.90;;;20.60;85.50;;;21.15;56.67;94776.72;5052426;28;20447;-56
2022/05/28 01:51:18;;;;;;;12.63;5.33;;;20.60;85.60;;;21.17;56.74;94771.16;5043039;28;20479;-56
2022/05/28 01:56:30;;;;;;;14.50;5.40;;;20.70;85.80;;;21.25;56.65;94778.97;5043130;28;20922;-54
2022/05/28 01:58:58;;;;;;;20.07;5.50;;;20.70;85.60;;;21.26;56.41;94783.28;5045978;28;20922;-55
2022/05/28 02:01:27;;;;;;;21.07;5.33;;;20.80;85.40;;;21.29;56.41;94782.88;5047056;28;20464;-53
2022/05/28 02:03:58;;;;;;;11.83;4.80;;;20.80;85.70;;;21.31;56.05;94783.47;5046168;28;20576;-54
2022/05/28 02:06:25;;;;;;;9.50;4.90;;;20.80;85.10;;;21.34;56.01;94780.38;5045785;28;20459;-55
2022/05/28 02:08:52;;;;;;;5.73;4.23;;;20.80;84.50;;;21.36;55.87;94772.16;5043070;28;20605;-53
2022/05/28 02:11:21;;;;;;;7.50;4.93;;;20.80;84.10;;;21.39;55.75;94775.22;5045547;28;20456;-54
2022/05/28 02:13:58;;;;;;;8.80;3.70;;;20.90;83.80;;;21.41;55.24;94772.34;5046033;28;21010;-56
2022/05/28 02:16:32;;;;;;;10.57;4.17;;;20.90;83.30;;;21.43;55.32;94765.75;5045559;28;20505;-54
2022/05/28 02:19:01;;;;;;;8.40;4.00;;;20.90;82.90;;;21.44;55.32;94761.22;5044551;28;20575;-53
2022/05/28 02:21:34;;;;;;;21.90;4.80;;;21.00;82.50;;;21.45;54.88;94761.00;5045301;28;20464;-54
2022/05/28 02:24:05;;;;;;;23.33;4.17;;;21.00;82.10;;;21.46;54.48;94768.00;5044461;28;20484;-53
2022/05/28 02:26:36;;;;;;;13.47;3.73;;;21.00;81.80;;;21.45;54.49;94771.72;5044126;28;20890;-55
2022/05/28 02:29:05;;;;;;;6.37;2.80;;;21.00;81.40;;;21.45;54.12;94777.06;5040020;28;20968;-54
2022/05/28 02:31:34;;;;;;;7.33;3.73;;;21.00;80.90;;;21.45;54.10;94769.03;5044242;28;20834;-55
2022/05/28 02:34:01;;;;;;;5.20;2.80;;;21.00;80.90;;;21.46;54.07;94772.56;5045876;28;20455;-52
2022/05/28 02:36:29;;;;;;;12.07;3.80;;;21.00;80.80;;;21.44;54.11;94756.69;5043281;28;20533;-56
2022/05/28 02:38:56;;;;;;;13.43;3.43;;;21.00;80.50;;;21.45;53.76;94746.81;5042625;28;20456;-55
2022/05/28 02:41:23;;;;;;;12.13;4.40;;;21.00;80.20;;;21.42;53.77;94742.69;5043751;28;20452;-52
2022/05/28 02:43:50;;;;;;;8.23;2.87;;;20.90;80.00;;;21.42;53.71;94748.03;5043420;28;20514;-56
2022/05/28 02:46:18;;;;;;;8.43;3.47;;;20.90;79.70;;;21.41;53.50;94737.56;5045044;28;21148;-54
2022/05/28 02:48:46;;;;;;;7.17;3.30;;;20.90;79.30;;;21.37;53.40;94739.03;5043197;28;20832;-55
2022/05/28 02:51:15;;;;;;;5.60;3.33;;;20.90;79.30;;;21.36;53.49;94748.06;5043617;28;20569;-54
2022/05/28 02:53:43;;;;;;;12.23;3.50;;;20.90;79.50;;;21.37;53.63;94753.22;5045983;28;20996;-57
2022/05/28 02:56:10;;;;;;;6.83;3.63;;;20.90;79.80;;;21.39;53.97;94764.53;5043931;28;21061;-54
2022/05/28 02:58:38;;;;;;;10.20;3.10;;;20.90;80.30;;;21.40;53.74;94765.38;5045600;28;20788;-55
2022/05/28 03:01:19;;;;;;;7.47;3.63;;;20.90;79.90;;;21.41;53.78;94759.81;5043272;28;20475;-54
2022/05/28 03:03:48;;;;;;;12.17;4.13;;;20.90;79.90;;;21.42;53.62;94748.03;5045830;28;20864;-54
2022/05/28 03:06:15;;;;;;;12.90;3.83;;;20.90;80.30;;;21.42;53.46;94748.03;5042418;28;20479;-56
2022/05/28 03:08:42;;;;;;;3.37;2.40;;;20.90;79.40;;;21.42;53.41;94752.59;5044418;28;20459;-54
2022/05/28 03:11:09;;;;;;;7.63;2.50;;;20.90;79.10;;;21.44;53.37;94751.34;5043634;28;20483;-57
2022/05/28 03:13:37;;;;;;;5.90;3.10;;;21.00;79.40;;;21.47;53.38;94755.44;5042192;28;20467;-55
2022/05/28 03:16:05;;;;;;;5.90;3.50;;;20.90;79.30;;;21.49;53.32;94759.59;5044323;28;20479;-54
2022/05/28 03:18:32;;;;;;;6.43;3.60;;;21.00;79.20;;;21.48;53.57;94760.59;5044618;28;20521;-56
2022/05/28 03:21:01;;;;;;;11.53;3.43;;;21.00;79.20;;;21.49;53.17;94751.56;5042999;28;20482;-56
2022/05/28 03:23:28;;;;;;;12.87;3.23;;;21.00;78.70;;;21.48;52.91;94747.19;5045021;28;20495;-54
2022/05/28 03:25:55;;;;;;;3.80;2.73;;;21.00;78.70;;;21.52;53.17;94750.34;5043756;28;20917;-56
2022/05/28 03:28:22;;;;;;;7.90;3.27;;;21.00;78.80;;;21.52;52.96;94747.66;5040973;28;20525;-55
2022/05/28 03:30:50;;;;;;;6.90;2.90;;;21.00;78.50;;;21.50;53.07;94744.34;5043568;28;20484;-55
2022/05/28 03:33:17;;;;;;;7.70;3.20;;;21.00;78.40;;;21.49;52.84;94748.06;5044147;28;20525;-55
2022/05/28 03:35:46;;;;;;;11.93;3.60;;;21.00;78.20;;;21.48;53.04;94749.06;5043204;28;20495;-54
2022/05/28 03:38:14;;;;;;;7.80;3.03;;;21.00;78.40;;;21.51;53.09;94756.72;5043877;28;20457;-53
2022/05/28 03:40:42;;;;;;;7.20;3.90;;;21.00;78.40;;;21.53;53.07;94746.59;5045053;28;21023;-55
2022/05/28 03:43:09;;;;;;;12.83;3.07;;;21.00;78.40;;;21.58;53.08;94743.28;5043429;28;20849;-52
2022/05/28 03:45:37;;;;;;;7.70;3.60;;;21.00;78.10;;;21.61;53.00;94738.34;5044498;28;20594;-54
2022/05/28 03:48:05;;;;;;;10.03;3.60;;;21.10;78.10;;;21.62;52.68;94736.50;5043045;28;20877;-55
2022/05/28 03:50:32;;;;;;;9.70;4.10;;;21.10;77.90;;;21.63;52.99;94732.78;5043199;28;21345;-54
2022/05/28 03:52:59;;;;;;;3.07;2.77;;;21.10;77.90;;;21.64;52.81;94729.06;5042383;28;20988;-54
2022/05/28 03:55:28;;;;;;;12.40;3.50;;;21.10;77.90;;;21.66;53.25;94721.66;5044643;28;21022;-57
2022/05/28 03:57:55;;;;;;;11.47;4.73;;;21.10;77.80;;;21.69;52.72;94731.09;5041343;28;20452;-54
2022/05/28 04:00:23;;;;;;;7.67;3.70;;;21.20;77.90;;;21.68;52.66;94724.94;5044122;28;20475;-55
2022/05/28 04:02:50;;;;;;;7.33;3.10;;;21.20;77.60;;;21.68;52.61;94724.94;5041495;28;20459;-54
2022/05/28 04:05:18;;;;;;;4.93;3.03;;;21.20;77.30;;;21.69;52.56;94720.41;5041810;28;20870;-56
2022/05/28 04:07:45;;;;;;;11.40;3.50;;;21.20;77.10;;;21.70;52.20;94722.06;5042289;28;20818;-52
2022/05/28 04:10:13;;;;;;;4.93;3.63;;;21.20;76.80;;;21.71;52.21;94729.88;5044041;28;20467;-55
2022/05/28 04:12:42;;;;;;;11.23;3.50;;;21.20;76.50;;;21.74;51.94;94745.50;5044619;28;20678;-53
2022/05/28 04:15:10;;;;;;;16.20;3.20;;;21.20;76.40;;;21.80;52.09;94795.53;5039603;28;20467;-55
2022/05/28 04:17:37;;;;;;;31.57;5.20;;;21.30;76.90;;;21.85;53.37;94832.38;5045835;28;20509;-55
2022/05/28 04:20:06;;;;;;;12.37;4.53;;;21.40;78.60;;;21.80;53.29;94814.28;5042794;28;20537;-55
2022/05/28 04:22:33;;;;;;;9.00;3.67;;;21.30;79.00;;;21.69;53.98;94753.38;5041290;28;20448;-54
2022/05/28 04:25:01;;;;;;;19.10;4.03;;;21.20;80.10;;;21.56;54.86;94713.25;5045316;28;20994;-55
2022/05/28 04:27:28;;;;;;;14.07;3.97;;;21.10;80.80;;;21.41;54.40;94711.63;5044978;28;20991;-59
2022/05/28 04:29:59;;;;;;;16.27;4.30;;;21.00;80.20;;;21.25;54.69;94693.34;5042657;28;21039;-54
2022/05/28 04:32:27;;;;;;;13.20;4.23;;;20.80;80.60;;;21.06;56.28;94684.38;5041182;28;20432;-55
2022/05/28 04:34:55;;;;;;;17.53;4.50;;;20.70;82.90;;;20.86;56.20;94701.25;5041119;28;20494;-55
2022/05/28 04:37:22;;;;;;;14.30;5.00;;;20.60;84.60;;;20.73;58.61;94728.84;5041035;28;20521;-54
2022/05/28 04:39:50;;;;;;;10.40;4.27;;;20.40;88.90;;;20.67;59.92;94751.03;5041194;28;20482;-54
2022/05/28 04:42:17;;;;;;;10.47;4.43;;;20.30;90.60;;;20.67;60.72;94745.69;5041055;28;20455;-54
2022/05/28 04:44:44;;;;;;;7.93;4.50;;;20.20;91.40;;;20.67;61.18;94771.59;5044188;28;20487;-55
2022/05/28 04:47:13;;;;;;;14.77;4.20;;;20.20;92.10;;;20.66;61.71;94781.47;5041818;28;20447;-53
2022/05/28 04:49:40;;;;;;;11.40;4.37;;;20.20;92.30;;;20.67;62.02;94767.06;5043878;28;20533;-54
2022/05/28 04:52:08;;;;;;;10.70;4.67;;;20.20;92.50;;;20.65;61.65;94766.47;5043863;28;20456;-53
2022/05/28 04:54:35;;;;;;;19.77;3.93;;;20.20;92.80;;;20.64;62.95;94772.00;5040060;28;20465;-54
2022/05/28 04:57:03;;;;;;;13.37;4.30;;;20.20;93.80;;;20.62;62.63;94780.22;5042503;28;21052;-54
2022/05/28 04:59:30;;;;;;;14.77;5.40;;;20.20;93.50;;;20.62;63.20;94769.53;5043207;28;20475;-55
2022/05/28 05:01:57;;;;;;;18.83;5.13;;;20.20;94.00;;;20.61;62.07;94762.53;5044407;28;20440;-56
2022/05/28 05:04:26;;;;;;;13.30;4.97;;;20.20;93.30;;;20.55;62.28;94758.00;5042097;28;21015;-53
2022/05/28 05:06:53;;;;;;;13.67;4.60;;;20.10;93.20;;;20.51;63.19;94757.59;5043863;28;20462;-54
2022/05/28 05:09:21;;;;;;;15.27;4.67;;;20.10;93.90;;;20.53;63.59;94762.72;5040805;28;20464;-55
2022/05/28 05:11:48;;;;;;;13.00;4.47;;;20.10;94.40;;;20.54;63.58;94753.66;5042944;28;20502;-54
2022/05/28 05:14:15;;;;;;;16.97;5.30;;;20.10;94.60;;;20.56;63.78;94765.00;5042392;28;20547;-56
2022/05/28 05:16:43;;;;;;;13.03;4.57;;;20.10;94.60;;;20.64;63.77;94783.50;5044776;28;20965;-54
2022/05/28 05:19:11;;;;;;;9.83;5.63;;;20.20;94.80;;;20.76;64.22;94797.91;5041395;28;20456;-55
2022/05/28 05:21:40;;;;;;;14.83;5.20;;;20.30;95.10;;;20.88;63.83;94792.78;5043747;28;20547;-54
2022/05/28 05:24:08;;;;;;;14.50;5.57;;;20.40;95.10;;;21.04;63.79;94791.53;5040721;28;20568;-54
2022/05/28 05:26:35;;;;;;;14.47;5.10;;;20.50;95.20;;;21.21;63.78;94793.78;5040795;28;20448;-55
2022/05/28 05:29:02;;;;;;;20.90;6.33;;;20.60;95.40;;;21.30;63.33;94792.53;5042433;28;20463;-53
2022/05/28 05:31:30;;;;;;;33.77;5.67;;;20.80;94.90;;;21.39;62.97;94785.13;5038569;28;20444;-53
2022/05/28 05:33:57;;;;;;;11.10;5.50;;;20.90;94.60;;;21.49;62.67;94783.69;5042860;28;20451;-54
2022/05/28 05:36:25;;;;;;;22.27;5.37;;;21.00;94.30;;;21.64;62.27;94787.94;5044072;28;20455;-55
2022/05/28 05:38:53;;;;;;;11.43;4.53;;;21.10;94.20;;;21.70;61.62;94772.91;5043514;28;20467;-55
2022/05/28 05:41:20;;;;;;;14.90;5.50;;;21.20;93.50;;;21.70;60.86;94764.88;5038756;28;20527;-53
2022/05/28 05:43:48;;;;;;;6.63;4.20;;;21.20;92.80;;;21.64;60.37;94775.41;5045858;28;20447;-56
2022/05/28 05:46:15;;;;;;;14.77;5.30;;;21.20;92.20;;;21.68;59.91;94789.19;5045439;28;20472;-55
2022/05/28 05:48:42;;;;;;;12.03;4.27;;;21.20;92.00;;;21.77;59.32;94773.72;5044919;28;20450;-55
2022/05/28 05:51:11;;;;;;;11.90;5.20;;;21.20;91.70;;;21.92;58.81;94768.09;5047065;28;20533;-54
2022/05/28 05:53:38;;;;;;;9.10;4.10;;;21.40;91.50;;;22.12;58.74;94774.19;5045271;28;20875;-52
2022/05/28 05:56:07;;;;;;;16.60;5.13;;;21.50;91.40;;;22.39;58.49;94776.72;5043463;28;20475;-55
2022/05/28 05:58:35;;;;;;;12.53;5.23;;;21.80;91.30;;;22.66;57.63;94773.88;5043418;28;20944;-57
2022/05/28 06:01:03;;;;;;;21.37;4.70;;;22.00;90.80;;;22.90;57.44;94770.38;5045649;28;20566;-54
2022/05/28 06:03:30;;;;;;;7.73;4.43;;;22.20;90.30;;;23.13;56.12;94763.63;5045194;28;20544;-53
2022/05/28 06:05:58;;;;;;;24.13;5.47;;;22.50;89.30;;;23.37;55.74;94766.47;5045956;28;20498;-56
2022/05/28 06:08:25;;;;;;;12.20;4.87;;;22.70;88.30;;;23.62;55.68;94761.88;5046216;28;20450;-56
2022/05/28 06:10:53;;;;;;;26.07;5.10;;;22.90;87.90;;;23.93;55.07;94759.25;5045675;28;20852;-56
2022/05/28 06:13:21;;;;;;;15.93;5.30;;;23.20;88.00;;;24.25;54.77;94765.25;5043599;28;20505;-52
2022/05/28 06:15:49;;;;;;;10.30;4.60;;;23.50;86.90;;;24.44;53.37;94747.19;5047034;28;20471;-56
2022/05/28 06:18:17;;;;;;;20.00;4.70;;;23.80;83.80;;;24.58;52.57;94744.34;5045149;28;20558;-57
2022/05/28 06:20:44;;;;;;;17.37;4.47;;;23.90;82.30;;;24.66;51.86;94734.09;5044775;28;20475;-56
2022/05/28 06:23:13;;;;;;;6.83;4.50;;;24.00;80.80;;;24.81;52.47;94736.31;5050416;28;20547;-56
2022/05/28 06:25:40;;;;;;;13.07;4.50;;;24.20;80.60;;;25.02;51.57;94732.25;5043766;28;20495;-55
2022/05/28 06:28:08;;;;;;;13.80;5.10;;;24.40;80.40;;;25.25;51.15;94738.66;5044819;28;20528;-56
2022/05/28 06:30:36;;;;;;;20.10;4.40;;;24.60;79.50;;;25.46;50.52;94731.91;5045229;28;20469;-57
2022/05/28 06:33:05;;;;;;;12.30;5.07;;;24.80;77.90;;;25.66;50.55;94728.81;5042408;28;20455;-55
2022/05/28 06:35:32;;;;;;;20.60;4.73;;;25.00;78.60;;;25.84;50.11;94729.69;5044902;28;20486;-57
2022/05/28 06:37:59;;;;;;;12.07;4.23;;;25.20;76.90;;;25.93;49.77;94728.25;5045409;28;20529;-55
2022/05/28 06:40:27;;;;;;;15.60;5.17;;;25.30;75.20;;;25.98;49.36;94730.28;5043682;28;20479;-53
2022/05/28 06:42:56;;;;;;;7.20;4.40;;;25.30;74.80;;;26.03;50.03;94725.81;5044923;28;21018;-56
2022/05/28 06:45:24;;;;;;;10.70;5.23;;;25.40;75.80;;;26.12;49.97;94728.97;5041492;28;20496;-57
2022/05/28 06:47:53;;;;;;;12.23;5.70;;;25.50;76.10;;;26.26;50.05;94713.31;5045536;28;20813;-57
2022/05/28 06:53:07;;;;;;;12.77;5.37;;;25.70;75.60;;;26.55;50.24;94718.66;5042537;28;20422;-54
2022/05/28 06:55:35;;;;;;;12.40;5.17;;;25.90;75.90;;;26.74;49.91;94708.47;5045369;28;20471;-55
2022/05/28 06:58:03;;;;;;;12.90;6.67;;;26.10;76.00;;;26.95;49.43;94712.31;5040009;28;20458;-56
2022/05/28 07:00:30;;;;;;;17.50;5.87;;;26.30;74.50;;;27.08;49.25;94709.28;5040733;28;20468;-55
2022/05/28 07:02:59;;;;;;;16.30;5.70;;;26.40;73.30;;;27.27;49.02;94701.72;5045007;28;20461;-55
2022/05/28 07:05:28;;;;;;;13.60;6.10;;;26.60;73.30;;;27.49;48.54;94696.38;5045213;28;20498;-57
2022/05/28 07:07:55;;;;;;;12.87;5.37;;;26.80;72.70;;;27.72;48.02;94684.50;5045770;28;20790;-56
2022/05/28 07:10:22;;;;;;;13.30;6.30;;;27.00;71.90;;;27.96;47.85;94686.16;5043380;28;20485;-55
2022/05/28 07:12:50;;;;;;;9.53;6.40;;;27.20;71.60;;;28.18;48.14;94678.81;5042920;28;20518;-53
2022/05/28 07:15:17;;;;;;;16.80;7.17;;;27.40;71.20;;;28.35;47.47;94680.59;5044050;28;20478;-54
2022/05/28 07:17:44;;;;;;;18.40;7.00;;;27.60;70.60;;;28.48;47.32;94685.59;5041513;28;20460;-55
2022/05/28 07:20:13;;;;;;;16.93;6.57;;;27.70;69.50;;;28.65;47.17;94685.50;5043584;28;20467;-54
2022/05/28 07:22:41;;;;;;;13.60;6.63;;;27.90;68.70;;;28.86;47.00;94680.22;5044145;28;20447;-55
2022/05/28 07:25:09;;;;;;;16.80;7.90;;;28.10;67.80;;;29.06;46.58;94683.06;5042210;28;21034;-55
2022/05/28 07:27:37;;;;;;;11.40;7.20;;;28.30;67.60;;;29.24;46.16;94672.94;5041282;28;20968;-55
2022/05/28 07:30:05;;;;;;;12.60;6.00;;;28.50;66.40;;;29.38;45.29;94667.88;5042242;28;20503;-56
2022/05/28 07:32:32;;;;;;;16.90;7.50;;;28.60;65.40;;;29.46;45.36;94670.88;5042381;28;20447;-55
2022/05/28 07:35:00;;;;;;;22.53;8.20;;;28.80;65.30;;;29.57;44.80;94669.03;5043858;28;21166;-56
2022/05/28 07:37:30;;;;;;;19.97;7.10;;;28.90;64.20;;;29.66;44.94;94678.28;5039357;28;20521;-53
2022/05/28 07:39:57;;;;;;;15.07;6.50;;;29.00;64.00;;;29.78;45.43;94677.28;5040982;28;20495;-55
2022/05/28 07:42:24;;;;;;;16.17;6.57;;;29.10;63.80;;;29.89;44.35;94683.56;5045425;28;20435;-56
2022/05/28 07:44:52;;;;;;;13.17;6.63;;;29.10;62.90;;;30.01;43.76;94676.81;5043449;28;20506;-57
2022/05/28 07:47:19;;;;;;;22.37;6.80;;;29.30;61.80;;;30.18;44.56;94681.22;5044950;28;20463;-56
2022/05/28 07:49:47;;;;;;;12.23;6.70;;;29.40;61.80;;;30.37;44.16;94674.19;5043212;28;20550;-56
2022/05/28 07:52:14;;;;;;;13.47;7.23;;;29.60;61.90;;;30.60;43.66;94672.06;5044240;28;20205;-55
2022/05/28 07:54:44;;;;;;;5.33;4.83;;;29.80;60.60;;;30.81;43.43;94669.34;5041994;28;20216;-56
2022/05/28 07:57:11;;;;;;;12.50;5.90;;;30.00;59.80;;;30.98;43.40;94669.09;5044718;28;20599;-57
2022/05/28 07:59:38;;;;;;;17.53;6.03;;;30.20;59.20;;;31.18;43.03;94668.25;5044445;28;20228;-58
2022/05/28 08:02:06;;;;;;;20.27;6.40;;;30.40;58.60;;;31.36;42.50;94659.50;5044059;28;20585;-57
2022/05/28 08:04:33;;;;;;;11.27;5.70;;;30.60;57.70;;;31.39;41.59;94661.69;5043723;28;20608;-56
2022/05/28 08:07:02;;;;;;;9.53;5.73;;;30.70;56.90;;;31.52;41.74;94657.56;5041818;28;20208;-57
2022/05/28 08:09:29;;;;;;;17.83;6.33;;;30.80;56.90;;;31.67;42.04;94673.03;5044903;28;20315;-55
2022/05/28 08:11:58;;;;;;;12.83;6.87;;;30.90;56.90;;;31.79;41.52;94659.94;5040917;28;20275;-57
2022/05/28 08:14:25;;;;;;;17.43;7.10;;;31.10;56.50;;;31.91;41.48;94662.31;5042574;28;20220;-55
2022/05/28 08:16:52;;;;;;;16.43;7.20;;;31.20;56.30;;;32.08;40.66;94655.69;5040517;28;20591;-57
2022/05/28 08:19:20;;;;;;;19.77;7.03;;;31.30;56.00;;;32.25;41.31;94650.72;5025165;28;20641;-55
2022/05/28 08:24:34;;;;;;;15.13;6.60;;;31.80;55.60;;;32.60;40.45;94650.78;5035807;28;20293;-54
2022/05/28 08:27:03;;;;;;;26.53;7.23;;;31.90;54.90;;;32.64;40.66;94649.94;5031616;28;20477;-56
2022/05/28 08:29:31;;;;;;;17.20;7.57;;;32.00;54.80;;;32.76;40.20;94655.00;5035981;28;20224;-56
2022/05/28 08:31:59;;;;;;;15.63;6.07;;;32.10;54.50;;;32.92;40.00;94649.41;5031150;28;20224;-57
2022/05/28 08:34:27;;;;;;;15.20;6.43;;;32.20;54.10;;;33.11;39.83;94644.06;5036265;28;20221;-56
2022/05/28 08:36:54;;;;;;;19.17;6.35;;;32.30;54.00;;;33.28;39.88;94647.19;5032202;28;20217;-54
2022/05/28 08:39:21;;;;;;;13.02;6.57;;;32.50;53.60;;;33.33;39.86;94652.59;5034269;28;20220;-54
2022/05/28 08:41:55;;;;;;;17.50;6.57;;;32.60;53.00;;;33.34;39.25;94637.88;5035711;28;20561;-53
2022/05/28 08:44:25;;;;;;;22.27;6.60;;;32.60;52.40;;;33.32;39.37;94634.59;5035312;28;20215;-56
2022/05/28 08:46:57;;;;;;;32.88;10.18;;;32.70;52.50;;;33.38;39.25;94635.34;5034805;28;20226;-56
2022/05/28 08:49:26;;;;;;;24.77;8.05;;;32.70;52.50;;;33.49;39.35;94642.31;5034370;28;20224;-54
2022/05/28 08:51:55;;;;;;;22.52;6.97;;;32.80;52.60;;;33.65;38.86;94637.50;5033843;28;20208;-55
2022/05/28 08:54:28;;;;;;;16.92;7.28;;;32.90;52.20;;;33.84;38.54;94644.94;5034684;28;20723;-57
2022/05/28 08:56:59;;;;;;;16.85;7.35;;;33.10;51.80;;;34.02;38.22;94643.31;5037657;28;20775;-53
2022/05/28 08:59:29;;;;;;;19.77;7.43;;;33.30;51.60;;;34.17;37.55;94634.94;5033539;28;20298;-56
2022/05/28 09:01:57;;;;;;;19.58;7.43;;;33.40;51.20;;;34.30;38.20;94631.50;5037312;28;20206;-52
2022/05/28 09:04:28;;;;;;;10.13;5.93;;;33.60;50.80;;;34.42;37.39;94632.94;5032881;28;20213;-55
2022/05/28 09:06:55;;;;;;;14.00;5.57;;;33.70;50.30;;;34.43;36.48;94620.94;5034026;28;20326;-55
2022/05/28 09:09:37;;;;;;;13.57;6.35;;;33.70;48.20;;;34.34;35.78;94619.97;5040599;28;20223;-55
2022/05/28 09:12:06;;;;;;;12.07;6.20;;;33.60;48.30;;;34.07;36.08;94616.78;5039301;28;20204;-55
2022/05/28 09:14:37;;;;;;;9.13;5.18;;;33.30;47.80;;;33.79;36.71;94610.34;5039558;28;20209;-53
2022/05/28 09:17:18;;;;;;;11.73;5.45;;;33.20;48.30;;;33.77;36.36;94607.09;5041127;28;20212;-55
2022/05/28 09:19:48;;;;;;;10.32;5.95;;;33.10;48.60;;;33.76;36.44;94605.47;5043445;28;20217;-55
2022/05/28 09:22:15;;;;;;;14.23;6.35;;;33.10;48.60;;;33.72;36.44;94598.97;5047035;28;20231;-55
2022/05/28 09:24:43;;;;;;;14.65;5.32;;;33.00;48.60;;;33.73;36.86;94600.63;5046010;28;20225;-54
2022/05/28 09:27:23;;;;;;;16.98;5.85;;;33.00;48.90;;;33.87;36.95;94598.78;5049242;28;20756;-55
2022/05/28 09:30:19;;;;;;;13.52;5.68;;;33.10;49.00;;;34.02;36.71;94591.47;5044381;28;20243;-54
2022/05/28 09:33:15;;;;;;;13.50;5.30;;;33.20;48.10;;;34.07;35.19;94600.41;5042681;28;20254;-55
2022/05/28 09:35:57;;;;;;;21.80;5.93;;;33.30;48.30;;;34.13;36.32;94588.31;5045811;28;20293;-56
2022/05/28 09:38:43;;;;;;;16.95;6.03;;;33.40;48.30;;;34.29;34.92;94583.44;5048720;28;20735;-54
2022/05/28 09:41:50;;;;;;;11.85;4.93;;;33.50;47.50;;;34.38;35.54;94588.22;5050164;28;20228;-55
2022/05/28 09:44:27;;;;;;;11.95;6.25;;;33.60;47.40;;;34.33;36.29;94577.38;5045552;28;20252;-56
2022/05/28 09:47:06;;;;;;;20.10;5.65;;;33.60;47.40;;;34.17;35.67;94566.69;5045377;28;20732;-55
2022/05/28 09:49:34;;;;;;;12.00;5.28;;;33.50;47.30;;;33.94;35.74;94571.13;5043890;28;20334;-53
2022/05/28 09:52:08;;;;;;;11.68;5.32;;;33.30;47.20;;;33.70;36.42;94560.25;5045617;28;20204;-53
2022/05/28 09:54:35;;;;;;;23.33;6.53;;;33.10;48.00;;;33.52;36.84;94557.19;5034812;28;20235;-56
2022/05/28 09:57:09;;;;;;;15.77;5.78;;;32.90;48.60;;;33.33;36.81;94550.91;5047739;28;20291;-53
2022/05/28 09:59:37;;;;;;;20.20;5.65;;;32.70;48.50;;;33.12;36.97;94553.81;5046466;28;20234;-54
2022/05/28 10:02:16;;;;;;;19.65;7.03;;;32.50;48.10;;;32.88;37.23;94549.19;5044689;28;20197;-54
2022/05/28 10:04:49;;;;;;;17.08;5.20;;;32.30;48.50;;;32.70;37.56;94552.66;5046489;28;20573;-55
2022/05/28 10:07:16;;;;;;;15.52;5.90;;;32.20;48.90;;;32.63;37.74;94544.78;5046345;28;20228;-53
2022/05/28 10:09:53;;;;;;;24.77;6.30;;;32.00;49.30;;;32.64;37.81;94542.88;5047076;28;20236;-53
2022/05/28 10:12:24;;;;;;;14.05;5.80;;;31.90;49.40;;;32.65;37.58;94537.16;5044502;28;20201;-53
2022/05/28 10:15:02;;;;;;;12.02;5.07;;;31.90;49.30;;;32.61;37.41;94538.81;5043347;28;20289;-55
2022/05/28 10:17:32;;;;;;;17.80;5.72;;;31.90;49.40;;;32.58;37.78;94538.56;5044243;28;20205;-55
2022/05/28 10:19:59;;;;;;;18.88;6.32;;;31.90;49.30;;;32.52;37.63;94533.19;5043233;28;20235;-54
2022/05/28 10:22:27;;;;;;;11.38;5.38;;;31.80;49.10;;;32.45;37.08;94532.69;5041475;28;20196;-55
2022/05/28 10:24:57;;;;;;;18.23;7.13;;;31.80;48.90;;;32.32;37.33;94527.94;5047582;28;20232;-53
2022/05/28 10:27:37;;;;;;;20.15;5.00;;;31.70;49.00;;;32.21;37.76;94520.94;5043395;28;20271;-57
2022/05/28 10:30:09;;;;;;;12.38;5.95;;;31.50;49.50;;;32.14;38.20;94513.09;5045616;28;20236;-57
2022/05/28 10:32:39;;;;;;;16.50;5.20;;;31.50;49.90;;;32.09;38.34;94515.84;5046900;28;20996;-53